.
WxDataArchive / Data Records for 2011-01-16
2011-01-15 January 2011 2011-01-17

Data Records for Sunday, 16 January 2011

Time	Temp	Chill	HIndex	Humid	Dewpt	 Wind 	HiWind	WindDir	Rain 	Barom 
-----	----	-----	------	-----	-----	------	------	-------	-----	----- 
00:00	22.5	22.5	22.5	81	17.6	0	2	248	0.00	30.183 
00:05	22.5	22.5	22.5	81	17.6	0	2	248	0.00	30.183 
00:10	22.5	22.5	22.5	81	17.6	0	1	248	0.00	30.183 
00:15	22.5	22.5	22.5	81	17.6	0	1	248	0.00	30.191 
00:20	22.5	22.5	22.5	81	17.6	0	1	248	0.00	30.191 
00:25	22.4	22.4	22.4	81	17.5	0	1	248	0.00	30.191 
00:30	22.4	22.4	22.4	81	17.5	0	2	248	0.00	30.194 
00:35	22.4	22.4	22.4	82	17.8	0	1	248	0.00	30.194 
00:40	22.4	22.4	22.4	82	17.8	0	1	248	0.00	30.194 
00:45	22.4	22.4	22.4	82	17.8	0	2	248	0.00	30.187 
00:50	22.2	22.2	22.2	82	17.6	0	1	248	0.00	30.187 
00:55	22.2	22.2	22.2	82	17.6	0	2	248	0.00	30.187 
01:00	22.2	22.2	22.2	82	17.6	0	2	248	0.00	30.191 
01:05	22.2	22.2	22.2	82	17.6	0	2	248	0.00	30.191 
01:10	22.2	22.2	22.2	82	17.6	0	2	248	0.00	30.191 
01:15	22.4	22.4	22.4	82	17.8	0	2	248	0.00	30.196 
01:20	22.4	22.4	22.4	83	18.0	0	1	248	0.00	30.196 
01:25	22.4	22.4	22.4	83	18.0	0	1	248	0.00	30.196 
01:30	22.4	22.4	22.4	83	18.0	0	2	248	0.00	30.195 
01:35	22.4	22.4	22.4	83	18.0	0	2	248	0.00	30.195 
01:40	22.4	22.4	22.4	83	18.0	0	2	338	0.00	30.195 
01:45	22.2	22.2	22.2	83	17.8	0	2	338	0.00	30.195 
01:50	22.2	22.2	22.2	83	17.8	0	1	338	0.00	30.195 
01:55	22.1	22.1	22.1	83	17.7	0	1	338	0.00	30.195 
02:00	22.1	22.1	22.1	83	17.7	0	1	338	0.00	30.199 
02:05	22.1	22.1	22.1	83	17.7	0	1	338	0.00	30.199 
02:10	22.1	22.1	22.1	83	17.7	0	1	338	0.00	30.199 
02:15	22.1	22.1	22.1	83	17.7	0	1	338	0.00	30.203 
02:20	21.9	21.9	21.9	83	17.5	0	1	338	0.00	30.203 
02:25	21.9	21.9	21.9	83	17.5	0	1	338	0.00	30.203 
02:30	21.8	21.8	21.8	83	17.4	0	0	---	0.00	30.212 
02:35	21.6	21.6	21.6	83	17.3	0	0	---	0.00	30.212 
02:40	21.3	21.3	21.3	83	17.0	0	0	---	0.00	30.212 
02:45	21.0	21.0	21.0	83	16.7	0	0	---	0.00	30.207 
02:50	20.6	20.6	20.6	83	16.3	0	0	---	0.00	30.207 
02:55	20.3	20.3	20.3	83	16.0	0	0	---	0.00	30.207 
03:00	20.0	20.0	20.0	83	15.7	0	0	---	0.00	30.208 
03:05	19.7	19.7	19.7	83	15.4	0	0	---	0.00	30.208 
03:10	19.2	19.2	19.2	84	15.2	0	0	---	0.00	30.208 
03:15	18.9	18.9	18.9	84	14.9	0	0	---	0.00	30.215 
03:20	18.6	18.6	18.6	84	14.6	0	0	---	0.00	30.215 
03:25	18.3	18.3	18.3	84	14.3	0	0	---	0.00	30.215 
03:30	18.0	18.0	18.0	84	14.0	0	0	---	0.00	30.228 
03:35	17.7	17.7	17.7	84	13.7	0	0	---	0.00	30.228 
03:40	17.3	17.3	17.3	84	13.3	0	0	---	0.00	30.228 
03:45	16.9	16.9	16.9	84	12.9	0	0	---	0.00	30.232 
03:50	16.5	16.5	16.5	83	12.3	0	0	---	0.00	30.232 
03:55	16.2	16.2	16.2	83	12.0	0	0	---	0.00	30.232 
04:00	15.9	15.9	15.9	84	11.9	0	0	---	0.00	30.244 
04:05	15.9	15.9	15.9	84	11.9	0	0	---	0.00	30.244 
04:10	15.7	15.7	15.7	84	11.7	0	0	---	0.00	30.244 
04:15	15.6	15.6	15.6	84	11.6	0	0	---	0.00	30.250 
04:20	15.4	15.4	15.4	84	11.4	0	0	---	0.00	30.250 
04:25	15.1	15.1	15.1	84	11.2	0	0	---	0.00	30.250 
04:30	15.1	15.1	15.1	84	11.2	0	0	---	0.00	30.259 
04:35	15.1	15.1	15.1	84	11.2	0	0	---	0.00	30.259 
04:40	15.1	15.1	15.1	84	11.2	0	0	---	0.00	30.259 
04:45	14.8	14.8	14.8	84	10.9	0	0	---	0.00	30.260 
04:50	14.4	14.4	14.4	83	10.2	0	0	---	0.00	30.260 
04:55	14.1	14.1	14.1	83	9.9	0	0	---	0.00	30.260 
05:00	13.6	13.6	13.6	83	9.4	0	0	---	0.00	30.258 
05:05	13.3	13.3	13.3	82	8.9	0	0	---	0.00	30.258 
05:10	12.9	12.9	12.9	82	8.5	0	0	---	0.00	30.258 
05:15	12.6	12.6	12.6	83	8.4	0	0	---	0.00	30.269 
05:20	12.6	12.6	12.6	83	8.4	0	0	---	0.00	30.269 
05:25	12.4	12.4	12.4	83	8.2	0	0	---	0.00	30.269 
05:30	12.1	12.1	12.1	83	7.9	0	0	---	0.00	30.274 
05:35	12.1	12.1	12.1	83	7.9	0	0	---	0.00	30.274 
05:40	11.9	11.9	11.9	83	7.8	0	0	---	0.00	30.274 
05:45	11.9	11.9	11.9	84	8.0	0	0	---	0.00	30.286 
05:50	11.9	11.9	11.9	84	8.0	0	0	---	0.00	30.286 
05:55	11.9	11.9	11.9	84	8.0	0	0	---	0.00	30.286 
06:00	11.9	11.9	11.9	84	8.0	0	0	---	0.00	30.281 
06:05	11.9	11.9	11.9	84	8.0	0	0	---	0.00	30.281 
06:10	11.9	11.9	11.9	84	8.0	0	0	---	0.00	30.281 
06:15	11.9	11.9	11.9	84	8.0	0	0	---	0.00	30.285 
06:20	12.1	12.1	12.1	84	8.2	0	0	---	0.00	30.285 
06:25	12.1	12.1	12.1	84	8.2	0	0	---	0.00	30.285 
06:30	12.3	12.3	12.3	84	8.4	0	0	---	0.00	30.287 
06:35	12.3	12.3	12.3	84	8.4	0	0	---	0.00	30.287 
06:40	12.3	12.3	12.3	84	8.4	0	0	---	0.00	30.287 
06:45	11.9	11.9	11.9	84	8.0	0	0	---	0.00	30.285 
06:50	11.7	11.7	11.7	83	7.6	0	0	---	0.00	30.285 
06:55	11.2	11.2	11.2	83	7.1	0	0	---	0.00	30.285 
07:00	10.9	10.9	10.9	83	6.8	0	0	---	0.00	30.289 
07:05	10.4	10.4	10.4	83	6.3	0	0	---	0.00	30.289 
07:10	10.0	10.0	10.0	83	5.9	0	0	---	0.00	30.289 
07:15	9.7	9.7	9.7	82	5.3	0	0	---	0.00	30.298 
07:20	9.3	9.3	9.3	82	4.9	0	0	---	0.00	30.298 
07:25	9.2	9.2	9.2	83	5.1	0	0	---	0.00	30.298 
07:30	9.0	9.0	9.0	83	4.9	0	0	---	0.00	30.294 
07:35	8.6	8.6	8.6	83	4.5	0	0	---	0.00	30.294 
07:40	8.4	8.4	8.4	83	4.3	0	0	---	0.00	30.294 
07:45	8.1	8.1	8.1	83	4.0	0	0	---	0.00	30.294 
07:50	7.9	7.9	7.9	83	3.8	0	0	---	0.00	30.294 
07:55	7.7	7.7	7.7	83	3.6	0	0	---	0.00	30.294 
08:00	7.6	7.6	7.6	83	3.5	0	0	---	0.00	30.298 
08:05	7.4	7.4	7.4	83	3.3	0	0	---	0.00	30.298 
08:10	7.4	7.4	7.4	83	3.3	0	0	---	0.00	30.298 
08:15	7.2	7.2	7.2	83	3.1	0	0	---	0.00	30.308 
08:20	6.9	6.9	6.9	83	2.9	0	0	---	0.00	30.308 
08:25	6.7	6.7	6.7	83	2.7	0	0	---	0.00	30.308 
08:30	6.7	6.7	6.7	83	2.7	0	0	---	0.00	30.311 
08:35	6.7	6.7	6.7	84	2.9	0	0	---	0.00	30.311 
08:40	7.2	7.2	7.2	84	3.4	0	0	---	0.00	30.311 
08:45	7.6	7.6	7.6	84	3.8	0	0	---	0.00	30.318 
08:50	7.6	7.6	7.6	84	3.8	0	0	---	0.00	30.318 
08:55	7.6	7.6	7.6	84	3.8	0	0	---	0.00	30.318 
09:00	7.7	7.7	7.7	84	3.9	0	0	---	0.00	30.325 
09:05	7.9	7.9	7.9	84	4.1	0	1	158	0.00	30.325 
09:10	8.1	8.1	8.1	84	4.3	0	0	---	0.00	30.325 
09:15	8.6	8.6	8.6	85	5.0	0	0	---	0.00	30.328 
09:20	9.2	9.2	9.2	85	5.6	0	1	68	0.00	30.328 
09:25	9.7	9.7	9.7	85	6.1	0	1	68	0.00	30.328 
09:30	10.5	10.5	10.5	86	7.2	0	2	68	0.00	30.335 
09:35	11.2	11.2	11.2	86	7.8	0	2	68	0.00	30.335 
09:40	12.3	12.3	12.3	85	8.7	0	3	68	0.00	30.335 
09:45	13.3	13.3	13.3	84	9.4	1	2	68	0.00	30.335 
09:50	14.0	14.0	14.0	81	9.3	1	2	68	0.00	30.335 
09:55	14.4	14.4	14.4	78	8.8	1	2	68	0.00	30.335 
10:00	14.6	14.6	14.6	77	8.7	1	3	68	0.00	30.332 
10:05	14.8	14.8	14.8	75	8.3	1	3	68	0.00	30.332 
10:10	14.9	14.9	14.9	73	7.8	1	3	68	0.00	30.332 
10:15	15.4	15.4	15.4	71	7.7	1	3	68	0.00	30.337 
10:20	15.7	15.7	15.7	69	7.4	1	3	68	0.00	30.337 
10:25	16.1	16.1	16.1	67	7.1	2	4	68	0.00	30.337 
10:30	16.2	16.2	16.2	66	6.9	2	4	90	0.00	30.341 
10:35	16.5	16.5	16.5	66	7.2	2	4	90	0.00	30.341 
10:40	16.7	16.7	16.7	65	7.0	2	4	90	0.00	30.341 
10:45	16.9	16.9	16.9	65	7.2	1	4	90	0.00	30.339 
10:50	16.9	16.9	16.9	64	6.9	2	5	90	0.00	30.339 
10:55	16.7	16.7	16.7	64	6.7	1	4	90	0.00	30.339 
11:00	16.7	16.7	16.7	64	6.7	2	4	90	0.00	30.334 
11:05	16.7	16.7	16.7	64	6.7	2	5	90	0.00	30.334 
11:10	16.7	16.7	16.7	65	7.0	1	3	90	0.00	30.334 
11:15	17.0	17.0	17.0	65	7.3	1	3	90	0.00	30.335 
11:20	17.3	17.3	17.3	64	7.2	1	3	90	0.00	30.335 
11:25	17.7	17.7	17.7	63	7.3	2	6	90	0.00	30.335 
11:30	17.8	17.8	17.8	62	7.0	1	3	90	0.00	30.333 
11:35	17.8	17.8	17.8	61	6.7	3	7	112	0.00	30.333 
11:40	18.0	18.0	18.0	61	6.9	1	7	90	0.00	30.333 
11:45	18.0	18.0	18.0	60	6.5	3	7	90	0.00	30.331 
11:50	18.0	18.0	18.0	61	6.9	3	7	90	0.00	30.331 
11:55	18.1	18.1	18.1	61	6.9	2	5	112	0.00	30.331 
12:00	18.3	18.3	18.3	60	6.8	1	4	112	0.00	30.333 
12:05	18.4	18.4	18.4	61	7.2	1	3	90	0.00	30.333 
12:10	18.6	18.6	18.6	60	7.1	1	3	45	0.00	30.333 
12:15	18.4	18.4	18.4	60	6.9	2	6	112	0.00	30.328 
12:20	18.3	18.3	18.3	60	6.8	2	6	90	0.00	30.328 
12:25	18.1	18.1	18.1	62	7.3	1	4	68	0.00	30.328 
12:30	18.3	18.3	18.3	61	7.1	2	7	112	0.00	30.317 
12:35	18.1	18.1	18.1	60	6.6	3	5	112	0.00	30.317 
12:40	18.1	18.1	18.1	60	6.6	2	5	112	0.00	30.317 
12:45	18.3	18.3	18.3	61	7.1	3	7	90	0.00	30.311 
12:50	18.4	18.4	18.4	61	7.2	2	6	112	0.00	30.311 
12:55	18.6	18.6	18.6	61	7.4	1	4	112	0.00	30.311 
13:00	18.8	18.8	18.8	60	7.2	2	6	112	0.00	30.299 
13:05	18.8	18.8	18.8	61	7.6	1	4	158	0.00	30.299 
13:10	19.1	19.1	19.1	59	7.2	2	4	135	0.00	30.299 
13:15	19.2	19.2	19.2	60	7.6	1	5	112	0.00	30.299 
13:20	19.5	19.5	19.5	59	7.5	1	3	90	0.00	30.299 
13:25	19.7	19.7	19.7	59	7.7	1	3	68	0.00	30.299 
13:30	19.9	19.9	19.9	58	7.5	1	3	90	0.00	30.285 
13:35	19.9	19.9	19.9	58	7.5	1	3	112	0.00	30.285 
13:40	19.2	19.2	19.2	58	6.9	3	5	90	0.00	30.285 
13:45	19.1	19.1	19.1	58	6.8	2	6	112	0.00	30.284 
13:50	18.8	18.8	18.8	59	6.9	2	7	90	0.00	30.284 
13:55	18.9	18.9	18.9	60	7.3	2	6	90	0.00	30.284 
14:00	19.2	19.2	19.2	60	7.6	1	4	135	0.00	30.283 
14:05	19.2	19.2	19.2	58	6.9	2	5	90	0.00	30.283 
14:10	19.1	19.1	19.1	59	7.2	1	3	90	0.00	30.283 
14:15	19.1	19.1	19.1	58	6.8	2	5	90	0.00	30.284 
14:20	19.1	19.1	19.1	59	7.2	1	3	90	0.00	30.284 
14:25	19.2	19.2	19.2	59	7.3	1	4	225	0.00	30.284 
14:30	19.5	19.5	19.5	59	7.5	1	3	90	0.00	30.279 
14:35	19.5	19.5	19.5	58	7.2	2	7	90	0.00	30.279 
14:40	19.5	19.5	19.5	58	7.2	1	4	90	0.00	30.279 
14:45	19.7	19.7	19.7	58	7.3	1	5	90	0.00	30.281 
14:50	19.4	19.4	19.4	58	7.1	1	4	90	0.00	30.281 
14:55	19.1	19.1	19.1	58	6.8	1	2	90	0.00	30.281 
15:00	19.1	19.1	19.1	59	7.2	1	3	90	0.00	30.284 
15:05	18.9	18.9	18.9	59	7.0	1	3	90	0.00	30.284 
15:10	18.9	18.9	18.9	59	7.0	0	2	90	0.00	30.284 
15:15	19.1	19.1	19.1	59	7.2	0	2	112	0.00	30.289 
15:20	19.1	19.1	19.1	59	7.2	2	4	112	0.00	30.289 
15:25	19.1	19.1	19.1	60	7.5	1	2	112	0.00	30.289 
15:30	19.2	19.2	19.2	59	7.3	0	1	112	0.00	30.294 
15:35	19.4	19.4	19.4	60	7.8	0	2	112	0.00	30.294 
15:40	19.4	19.4	19.4	59	7.4	0	2	112	0.00	30.294 
15:45	19.4	19.4	19.4	59	7.4	0	2	112	0.00	30.293 
15:50	19.4	19.4	19.4	59	7.4	0	1	112	0.00	30.293 
15:55	19.2	19.2	19.2	59	7.3	1	4	112	0.00	30.293 
16:00	18.9	18.9	18.9	59	7.0	1	3	112	0.00	30.291 
16:05	18.9	18.9	18.9	60	7.3	1	4	90	0.00	30.291 
16:10	18.8	18.8	18.8	60	7.2	1	5	90	0.00	30.291 
16:15	18.8	18.8	18.8	61	7.6	1	3	90	0.00	30.296 
16:20	18.8	18.8	18.8	61	7.6	0	2	90	0.00	30.296 
16:25	18.8	18.8	18.8	61	7.6	1	4	135	0.00	30.296 
16:30	18.8	18.8	18.8	61	7.6	0	2	112	0.00	30.301 
16:35	18.8	18.8	18.8	61	7.6	0	1	112	0.00	30.301 
16:40	18.8	18.8	18.8	62	8.0	0	2	112	0.00	30.301 
16:45	18.8	18.8	18.8	62	8.0	0	2	112	0.00	30.305 
16:50	18.8	18.8	18.8	62	8.0	0	2	135	0.00	30.305 
16:55	18.8	18.8	18.8	62	8.0	1	2	135	0.00	30.305 
17:00	18.6	18.6	18.6	62	7.8	0	1	112	0.00	30.306 
17:05	18.4	18.4	18.4	63	7.9	0	1	112	0.00	30.306 
17:10	18.4	18.4	18.4	63	7.9	0	1	112	0.00	30.306 
17:15	18.3	18.3	18.3	63	7.8	1	3	112	0.00	30.307 
17:20	18.1	18.1	18.1	63	7.7	0	2	112	0.00	30.307 
17:25	18.0	18.0	18.0	64	7.9	0	2	135	0.00	30.307 
17:30	18.0	18.0	18.0	63	7.6	0	2	135	0.00	30.298 
17:35	17.8	17.8	17.8	64	7.7	0	1	158	0.00	30.298 
17:40	17.8	17.8	17.8	64	7.7	0	2	45	0.00	30.298 
17:45	17.7	17.7	17.7	65	8.0	0	2	45	0.00	30.294 
17:50	17.7	17.7	17.7	65	8.0	0	2	45	0.00	30.294 
17:55	17.5	17.5	17.5	65	7.8	0	2	45	0.00	30.294 
18:00	17.5	17.5	17.5	65	7.8	0	1	45	0.00	30.292 
18:05	17.5	17.5	17.5	66	8.1	0	2	112	0.00	30.292 
18:10	17.5	17.5	17.5	66	8.1	0	2	112	0.00	30.292 
18:15	17.5	17.5	17.5	66	8.1	0	1	112	0.00	30.295 
18:20	17.3	17.3	17.3	66	7.9	0	1	112	0.00	30.295 
18:25	17.3	17.3	17.3	66	7.9	0	2	112	0.00	30.295 
18:30	17.3	17.3	17.3	66	7.9	0	1	112	0.00	30.296 
18:35	17.3	17.3	17.3	66	7.9	0	1	112	0.00	30.296 
18:40	17.3	17.3	17.3	66	7.9	0	1	112	0.00	30.296 
18:45	17.3	17.3	17.3	66	7.9	0	1	112	0.00	30.296 
18:50	17.3	17.3	17.3	66	7.9	0	1	112	0.00	30.296 
18:55	17.3	17.3	17.3	66	7.9	0	1	112	0.00	30.296 
19:00	17.2	17.2	17.2	66	7.8	0	2	112	0.00	30.303 
19:05	17.2	17.2	17.2	66	7.8	0	2	112	0.00	30.303 
19:10	17.2	17.2	17.2	66	7.8	0	1	112	0.00	30.303 
19:15	17.2	17.2	17.2	66	7.8	0	2	112	0.00	30.309 
19:20	17.2	17.2	17.2	66	7.8	0	1	112	0.00	30.309 
19:25	17.2	17.2	17.2	65	7.5	0	1	112	0.00	30.309 
19:30	17.2	17.2	17.2	66	7.8	0	1	112	0.00	30.314 
19:35	17.2	17.2	17.2	66	7.8	0	1	112	0.00	30.314 
19:40	17.2	17.2	17.2	66	7.8	0	2	112	0.00	30.314 
19:45	17.2	17.2	17.2	66	7.8	0	2	112	0.00	30.314 
19:50	17.2	17.2	17.2	66	7.8	0	2	112	0.00	30.314 
19:55	17.2	17.2	17.2	66	7.8	0	3	112	0.00	30.314 
20:00	17.2	17.2	17.2	65	7.5	1	3	112	0.00	30.313 
20:05	17.2	17.2	17.2	66	7.8	0	2	112	0.00	30.313 
20:10	17.2	17.2	17.2	66	7.8	0	2	112	0.00	30.313 
20:15	17.2	17.2	17.2	65	7.5	1	3	112	0.00	30.306 
20:20	17.2	17.2	17.2	65	7.5	0	3	112	0.00	30.306 
20:25	17.2	17.2	17.2	66	7.8	0	3	112	0.00	30.306 
20:30	17.2	17.2	17.2	66	7.8	0	2	112	0.00	30.311 
20:35	17.2	17.2	17.2	66	7.8	0	2	112	0.00	30.311 
20:40	17.2	17.2	17.2	66	7.8	0	1	112	0.00	30.311 
20:45	17.0	17.0	17.0	66	7.6	1	2	112	0.00	30.305 
20:50	17.0	17.0	17.0	67	8.0	0	1	112	0.00	30.305 
20:55	17.0	17.0	17.0	67	8.0	0	1	112	0.00	30.305 
21:00	17.0	17.0	17.0	67	8.0	0	2	112	0.00	30.301 
21:05	17.0	17.0	17.0	67	8.0	0	2	112	0.00	30.301 
21:10	17.0	17.0	17.0	67	8.0	1	2	112	0.00	30.301 
21:15	17.0	17.0	17.0	67	8.0	0	1	112	0.00	30.290 
21:20	17.0	17.0	17.0	67	8.0	0	2	112	0.00	30.290 
21:25	17.0	17.0	17.0	67	8.0	1	3	112	0.00	30.290 
21:30	16.9	16.9	16.9	67	7.9	1	2	112	0.00	30.284 
21:35	17.0	17.0	17.0	67	8.0	1	3	112	0.00	30.284 
21:40	16.9	16.9	16.9	68	8.2	1	4	112	0.00	30.284 
21:45	16.9	16.9	16.9	68	8.2	1	3	112	0.00	30.280 
21:50	16.9	16.9	16.9	68	8.2	1	4	112	0.00	30.280 
21:55	16.9	16.9	16.9	68	8.2	1	3	112	0.00	30.280 
22:00	16.9	16.9	16.9	68	8.2	2	3	68	0.00	30.281 
22:05	16.9	16.9	16.9	69	8.5	1	3	68	0.00	30.281 
22:10	16.9	16.9	16.9	69	8.5	1	3	68	0.00	30.281 
22:15	16.9	16.9	16.9	69	8.5	0	2	68	0.00	30.281 
22:20	16.9	16.9	16.9	70	8.8	0	2	68	0.00	30.281 
22:25	16.9	16.9	16.9	69	8.5	1	4	68	0.00	30.281 
22:30	16.9	16.9	16.9	69	8.5	1	3	68	0.00	30.282 
22:35	16.9	16.9	16.9	69	8.5	0	2	68	0.00	30.282 
22:40	16.9	16.9	16.9	69	8.5	0	2	68	0.00	30.282 
22:45	16.9	16.9	16.9	69	8.5	1	3	68	0.00	30.276 
22:50	16.9	16.9	16.9	68	8.2	1	3	90	0.00	30.276 
22:55	16.9	16.9	16.9	68	8.2	1	4	90	0.00	30.276 
23:00	16.9	16.9	16.9	67	7.9	2	4	90	0.00	30.280 
23:05	16.9	16.9	16.9	67	7.9	2	3	90	0.00	30.280 
23:10	16.9	16.9	16.9	67	7.9	1	3	90	0.00	30.280 
23:15	16.9	16.9	16.9	67	7.9	2	4	90	0.00	30.274 
23:20	16.9	16.9	16.9	66	7.5	2	4	90	0.00	30.274 
23:25	16.7	16.7	16.7	67	7.7	1	3	90	0.00	30.274 
23:30	16.7	16.7	16.7	66	7.3	1	3	68	0.00	30.273 
23:35	16.7	16.7	16.7	67	7.7	1	3	112	0.00	30.273 
23:40	16.5	16.5	16.5	67	7.5	1	3	112	0.00	30.273 
23:45	16.4	16.4	16.4	68	7.7	1	3	112	0.00	30.265 
23:50	16.4	16.4	16.4	68	7.7	1	3	112	0.00	30.265 
23:55	16.2	16.2	16.2	68	7.5	1	4	112	0.00	30.265 

CoCoRaHS
IN-AL-39
A2 Web Hosting
Creative Commons License
GoDaddy
search engine by freefind advanced

loaded 2018-11-16 12:01:03 • last modified 2010-11-18 10:43:29
Privacy PolicyDisclaimer
• wx.awcolley.com is powered by PmWiki v.2002016 •
• all content (unless otherwise noted) © 2018 A W Colley